sensor_id;sensor_type;location;lat;lon;timestamp;temperature;humidity
33943;DHT22;66763;47.856;17.462;2023-04-28T00:01:14;16.70;44.40
33943;DHT22;66763;47.856;17.462;2023-04-28T00:03:39;16.70;44.40
33943;DHT22;66763;47.856;17.462;2023-04-28T00:06:05;16.70;44.50
33943;DHT22;66763;47.856;17.462;2023-04-28T00:08:30;16.70;44.40
33943;DHT22;66763;47.856;17.462;2023-04-28T00:10:56;16.70;44.50
33943;DHT22;66763;47.856;17.462;2023-04-28T00:13:22;16.70;44.40
33943;DHT22;66763;47.856;17.462;2023-04-28T00:15:51;16.70;44.50
33943;DHT22;66763;47.856;17.462;2023-04-28T00:18:19;16.70;44.50
33943;DHT22;66763;47.856;17.462;2023-04-28T00:20:45;16.70;44.40
33943;DHT22;66763;47.856;17.462;2023-04-28T00:23:10;16.70;44.30
33943;DHT22;66763;47.856;17.462;2023-04-28T00:25:36;16.70;44.30
33943;DHT22;66763;47.856;17.462;2023-04-28T00:28:01;16.70;44.40
33943;DHT22;66763;47.856;17.462;2023-04-28T00:30:28;16.70;44.20
33943;DHT22;66763;47.856;17.462;2023-04-28T00:32:54;16.70;44.20
33943;DHT22;66763;47.856;17.462;2023-04-28T00:35:19;16.70;45.10
33943;DHT22;66763;47.856;17.462;2023-04-28T00:37:45;16.70;44.30
33943;DHT22;66763;47.856;17.462;2023-04-28T00:40:10;16.70;44.10
33943;DHT22;66763;47.856;17.462;2023-04-28T00:42:36;16.70;44.40
33943;DHT22;66763;47.856;17.462;2023-04-28T00:45:01;16.70;44.20
33943;DHT22;66763;47.856;17.462;2023-04-28T00:47:31;16.70;44.20
33943;DHT22;66763;47.856;17.462;2023-04-28T00:49:57;16.70;44.10
33943;DHT22;66763;47.856;17.462;2023-04-28T00:52:23;16.60;43.90
33943;DHT22;66763;47.856;17.462;2023-04-28T00:54:48;16.70;44.30
33943;DHT22;66763;47.856;17.462;2023-04-28T00:57:14;16.70;44.50
33943;DHT22;66763;47.856;17.462;2023-04-28T00:59:39;16.70;44.50
33943;DHT22;66763;47.856;17.462;2023-04-28T01:02:05;16.60;44.40
33943;DHT22;66763;47.856;17.462;2023-04-28T01:04:31;16.70;44.20
33943;DHT22;66763;47.856;17.462;2023-04-28T01:06:57;16.60;43.60
33943;DHT22;66763;47.856;17.462;2023-04-28T01:09:24;16.60;43.90
33943;DHT22;66763;47.856;17.462;2023-04-28T01:11:49;16.60;44.20
33943;DHT22;66763;47.856;17.462;2023-04-28T01:14:15;16.70;44.50
33943;DHT22;66763;47.856;17.462;2023-04-28T01:16:41;16.70;44.40
33943;DHT22;66763;47.856;17.462;2023-04-28T01:19:07;16.70;44.40
33943;DHT22;66763;47.856;17.462;2023-04-28T01:21:32;16.70;44.40
33943;DHT22;66763;47.856;17.462;2023-04-28T01:23:58;16.60;44.40
33943;DHT22;66763;47.856;17.462;2023-04-28T01:26:24;16.60;44.00
33943;DHT22;66763;47.856;17.462;2023-04-28T01:28:50;16.60;44.30
33943;DHT22;66763;47.856;17.462;2023-04-28T01:31:15;16.60;44.30
33943;DHT22;66763;47.856;17.462;2023-04-28T01:33:41;16.60;44.10
33943;DHT22;66763;47.856;17.462;2023-04-28T01:36:06;16.70;44.30
33943;DHT22;66763;47.856;17.462;2023-04-28T01:38:32;16.60;44.20
33943;DHT22;66763;47.856;17.462;2023-04-28T01:40:58;16.60;44.20
33943;DHT22;66763;47.856;17.462;2023-04-28T01:43:23;16.60;44.30
33943;DHT22;66763;47.856;17.462;2023-04-28T01:45:49;16.60;44.30
33943;DHT22;66763;47.856;17.462;2023-04-28T01:48:15;16.60;44.20
33943;DHT22;66763;47.856;17.462;2023-04-28T01:50:41;16.60;44.30
33943;DHT22;66763;47.856;17.462;2023-04-28T01:53:06;16.60;44.10
33943;DHT22;66763;47.856;17.462;2023-04-28T01:55:32;16.60;44.20
33943;DHT22;66763;47.856;17.462;2023-04-28T01:57:57;16.60;44.00
33943;DHT22;66763;47.856;17.462;2023-04-28T02:00:23;16.60;44.20
33943;DHT22;66763;47.856;17.462;2023-04-28T02:02:48;16.60;44.10
33943;DHT22;66763;47.856;17.462;2023-04-28T02:05:14;16.60;44.20
33943;DHT22;66763;47.856;17.462;2023-04-28T02:07:39;16.60;43.70
33943;DHT22;66763;47.856;17.462;2023-04-28T02:10:06;16.60;43.70
33943;DHT22;66763;47.856;17.462;2023-04-28T02:12:32;16.60;43.90
33943;DHT22;66763;47.856;17.462;2023-04-28T02:14:57;16.60;43.80
33943;DHT22;66763;47.856;17.462;2023-04-28T02:17:22;16.60;44.10
33943;DHT22;66763;47.856;17.462;2023-04-28T02:19:53;16.60;43.80
33943;DHT22;66763;47.856;17.462;2023-04-28T02:22:18;16.60;43.60
33943;DHT22;66763;47.856;17.462;2023-04-28T02:24:44;16.60;43.80
33943;DHT22;66763;47.856;17.462;2023-04-28T02:27:09;16.60;44.10
33943;DHT22;66763;47.856;17.462;2023-04-28T02:29:35;16.60;44.10
33943;DHT22;66763;47.856;17.462;2023-04-28T02:32:00;16.60;43.80
33943;DHT22;66763;47.856;17.462;2023-04-28T02:34:25;16.60;44.10
33943;DHT22;66763;47.856;17.462;2023-04-28T02:36:51;16.60;43.70
33943;DHT22;66763;47.856;17.462;2023-04-28T02:39:16;16.60;43.90
33943;DHT22;66763;47.856;17.462;2023-04-28T02:41:42;16.60;43.60
33943;DHT22;66763;47.856;17.462;2023-04-28T02:44:08;16.60;44.20
33943;DHT22;66763;47.856;17.462;2023-04-28T02:46:33;16.60;44.10
33943;DHT22;66763;47.856;17.462;2023-04-28T02:48:59;16.60;44.10
33943;DHT22;66763;47.856;17.462;2023-04-28T02:51:24;16.60;44.80
33943;DHT22;66763;47.856;17.462;2023-04-28T02:53:49;16.60;43.90
33943;DHT22;66763;47.856;17.462;2023-04-28T02:56:15;16.60;44.20
33943;DHT22;66763;47.856;17.462;2023-04-28T02:58:40;16.60;44.20
33943;DHT22;66763;47.856;17.462;2023-04-28T03:01:06;16.60;44.20
33943;DHT22;66763;47.856;17.462;2023-04-28T03:03:31;16.60;44.30
33943;DHT22;66763;47.856;17.462;2023-04-28T03:05:57;16.60;44.10
33943;DHT22;66763;47.856;17.462;2023-04-28T03:08:23;16.60;44.10
33943;DHT22;66763;47.856;17.462;2023-04-28T03:10:48;16.60;44.30
33943;DHT22;66763;47.856;17.462;2023-04-28T03:13:14;16.60;44.20
33943;DHT22;66763;47.856;17.462;2023-04-28T03:15:39;16.60;44.00
33943;DHT22;66763;47.856;17.462;2023-04-28T03:18:05;16.60;44.20
33943;DHT22;66763;47.856;17.462;2023-04-28T03:20:30;16.60;44.30
33943;DHT22;66763;47.856;17.462;2023-04-28T03:22:56;16.60;44.30
33943;DHT22;66763;47.856;17.462;2023-04-28T03:25:21;16.60;44.30
33943;DHT22;66763;47.856;17.462;2023-04-28T03:27:47;16.60;44.20
33943;DHT22;66763;47.856;17.462;2023-04-28T03:30:12;16.60;44.20
33943;DHT22;66763;47.856;17.462;2023-04-28T03:32:38;16.60;44.40
33943;DHT22;66763;47.856;17.462;2023-04-28T03:35:03;16.60;44.20
33943;DHT22;66763;47.856;17.462;2023-04-28T03:37:29;16.60;44.30
33943;DHT22;66763;47.856;17.462;2023-04-28T03:39:54;16.60;44.10
33943;DHT22;66763;47.856;17.462;2023-04-28T03:42:20;16.60;44.30
33943;DHT22;66763;47.856;17.462;2023-04-28T03:44:45;16.60;44.20
33943;DHT22;66763;47.856;17.462;2023-04-28T03:47:11;16.60;44.00
33943;DHT22;66763;47.856;17.462;2023-04-28T03:49:36;16.60;44.30
33943;DHT22;66763;47.856;17.462;2023-04-28T03:52:02;16.60;44.20
33943;DHT22;66763;47.856;17.462;2023-04-28T03:54:28;16.60;43.90
33943;DHT22;66763;47.856;17.462;2023-04-28T03:56:54;16.60;43.80
33943;DHT22;66763;47.856;17.462;2023-04-28T03:59:19;16.60;44.10
33943;DHT22;66763;47.856;17.462;2023-04-28T04:01:45;16.50;43.70
33943;DHT22;66763;47.856;17.462;2023-04-28T04:04:10;16.60;43.90
33943;DHT22;66763;47.856;17.462;2023-04-28T04:06:36;16.60;44.00
33943;DHT22;66763;47.856;17.462;2023-04-28T04:09:01;16.60;43.80
33943;DHT22;66763;47.856;17.462;2023-04-28T04:11:27;16.50;44.10
33943;DHT22;66763;47.856;17.462;2023-04-28T04:13:52;16.60;43.80
33943;DHT22;66763;47.856;17.462;2023-04-28T04:16:18;16.50;43.80
33943;DHT22;66763;47.856;17.462;2023-04-28T04:18:43;16.60;43.70
33943;DHT22;66763;47.856;17.462;2023-04-28T04:21:09;16.50;43.80
33943;DHT22;66763;47.856;17.462;2023-04-28T04:23:34;16.60;44.00
33943;DHT22;66763;47.856;17.462;2023-04-28T04:26:00;16.50;43.90
33943;DHT22;66763;47.856;17.462;2023-04-28T04:28:25;16.60;44.00
33943;DHT22;66763;47.856;17.462;2023-04-28T04:30:51;16.50;43.80
33943;DHT22;66763;47.856;17.462;2023-04-28T04:33:16;16.50;44.00
33943;DHT22;66763;47.856;17.462;2023-04-28T04:35:42;16.50;44.00
33943;DHT22;66763;47.856;17.462;2023-04-28T04:38:08;16.50;43.90
33943;DHT22;66763;47.856;17.462;2023-04-28T04:40:33;16.60;44.00
33943;DHT22;66763;47.856;17.462;2023-04-28T04:42:59;16.50;43.90
33943;DHT22;66763;47.856;17.462;2023-04-28T04:45:25;16.60;43.80
33943;DHT22;66763;47.856;17.462;2023-04-28T04:47:51;16.50;44.20
33943;DHT22;66763;47.856;17.462;2023-04-28T04:50:16;16.50;44.10
33943;DHT22;66763;47.856;17.462;2023-04-28T04:52:42;16.50;44.00
33943;DHT22;66763;47.856;17.462;2023-04-28T04:55:07;16.50;43.90
33943;DHT22;66763;47.856;17.462;2023-04-28T04:57:35;16.50;44.10
33943;DHT22;66763;47.856;17.462;2023-04-28T05:00:00;16.50;43.90
33943;DHT22;66763;47.856;17.462;2023-04-28T05:02:26;16.50;43.90
33943;DHT22;66763;47.856;17.462;2023-04-28T05:04:51;16.50;43.80
33943;DHT22;66763;47.856;17.462;2023-04-28T05:07:17;16.50;44.00
33943;DHT22;66763;47.856;17.462;2023-04-28T05:09:42;16.50;43.90
33943;DHT22;66763;47.856;17.462;2023-04-28T05:12:08;16.50;43.80
33943;DHT22;66763;47.856;17.462;2023-04-28T05:14:33;16.50;43.90
33943;DHT22;66763;47.856;17.462;2023-04-28T05:16:59;16.50;44.00
33943;DHT22;66763;47.856;17.462;2023-04-28T05:19:24;16.50;43.70
33943;DHT22;66763;47.856;17.462;2023-04-28T05:21:50;16.50;44.00
33943;DHT22;66763;47.856;17.462;2023-04-28T05:24:20;16.50;44.10
33943;DHT22;66763;47.856;17.462;2023-04-28T05:26:47;16.50;44.10
33943;DHT22;66763;47.856;17.462;2023-04-28T05:29:13;16.50;43.70
33943;DHT22;66763;47.856;17.462;2023-04-28T05:31:39;16.50;43.90
33943;DHT22;66763;47.856;17.462;2023-04-28T05:34:04;16.50;44.10
33943;DHT22;66763;47.856;17.462;2023-04-28T05:36:30;16.50;43.80
33943;DHT22;66763;47.856;17.462;2023-04-28T05:38:56;16.50;44.00
33943;DHT22;66763;47.856;17.462;2023-04-28T05:41:21;16.50;44.10
33943;DHT22;66763;47.856;17.462;2023-04-28T05:43:47;16.50;43.90
33943;DHT22;66763;47.856;17.462;2023-04-28T05:46:15;16.50;43.80
33943;DHT22;66763;47.856;17.462;2023-04-28T05:48:41;16.50;44.10
33943;DHT22;66763;47.856;17.462;2023-04-28T05:51:06;16.50;44.00
33943;DHT22;66763;47.856;17.462;2023-04-28T05:53:32;16.50;44.00
33943;DHT22;66763;47.856;17.462;2023-04-28T05:55:57;16.50;43.80
33943;DHT22;66763;47.856;17.462;2023-04-28T05:58:23;16.50;44.00
33943;DHT22;66763;47.856;17.462;2023-04-28T06:00:48;16.50;44.10
33943;DHT22;66763;47.856;17.462;2023-04-28T06:03:14;16.50;44.00
33943;DHT22;66763;47.856;17.462;2023-04-28T06:05:43;16.50;43.90
33943;DHT22;66763;47.856;17.462;2023-04-28T06:08:08;16.50;43.90
33943;DHT22;66763;47.856;17.462;2023-04-28T06:10:34;16.50;43.90
33943;DHT22;66763;47.856;17.462;2023-04-28T06:12:59;16.50;43.90
33943;DHT22;66763;47.856;17.462;2023-04-28T06:15:26;16.50;43.90
33943;DHT22;66763;47.856;17.462;2023-04-28T06:17:52;16.50;44.00
33943;DHT22;66763;47.856;17.462;2023-04-28T06:20:18;16.50;43.90
33943;DHT22;66763;47.856;17.462;2023-04-28T06:22:43;16.50;43.90
33943;DHT22;66763;47.856;17.462;2023-04-28T06:25:09;16.50;44.10
33943;DHT22;66763;47.856;17.462;2023-04-28T06:27:34;16.50;44.10
33943;DHT22;66763;47.856;17.462;2023-04-28T06:30:00;16.50;44.10
33943;DHT22;66763;47.856;17.462;2023-04-28T06:32:25;16.50;44.10
33943;DHT22;66763;47.856;17.462;2023-04-28T06:34:51;16.50;44.10
33943;DHT22;66763;47.856;17.462;2023-04-28T06:37:16;16.50;44.10
33943;DHT22;66763;47.856;17.462;2023-04-28T06:39:43;16.50;44.10
33943;DHT22;66763;47.856;17.462;2023-04-28T06:42:08;16.50;44.00
33943;DHT22;66763;47.856;17.462;2023-04-28T06:44:34;16.50;44.10
33943;DHT22;66763;47.856;17.462;2023-04-28T06:46:59;16.50;44.00
33943;DHT22;66763;47.856;17.462;2023-04-28T06:49:25;16.50;44.10
33943;DHT22;66763;47.856;17.462;2023-04-28T06:51:50;16.50;44.00
33943;DHT22;66763;47.856;17.462;2023-04-28T06:54:16;16.50;44.10
33943;DHT22;66763;47.856;17.462;2023-04-28T06:56:41;16.50;44.00
33943;DHT22;66763;47.856;17.462;2023-04-28T06:59:07;16.50;44.10
33943;DHT22;66763;47.856;17.462;2023-04-28T07:01:32;16.50;44.20
33943;DHT22;66763;47.856;17.462;2023-04-28T07:03:58;16.50;44.10
33943;DHT22;66763;47.856;17.462;2023-04-28T07:06:23;16.50;44.10
33943;DHT22;66763;47.856;17.462;2023-04-28T07:08:49;16.50;44.00
33943;DHT22;66763;47.856;17.462;2023-04-28T07:11:14;16.50;44.10
33943;DHT22;66763;47.856;17.462;2023-04-28T07:13:40;16.50;44.10
33943;DHT22;66763;47.856;17.462;2023-04-28T07:16:06;16.50;44.10
33943;DHT22;66763;47.856;17.462;2023-04-28T07:18:32;16.50;44.00
33943;DHT22;66763;47.856;17.462;2023-04-28T07:20:57;16.50;44.20
33943;DHT22;66763;47.856;17.462;2023-04-28T07:23:23;16.50;44.10
33943;DHT22;66763;47.856;17.462;2023-04-28T07:25:48;16.50;44.10
33943;DHT22;66763;47.856;17.462;2023-04-28T07:28:14;16.50;44.10
33943;DHT22;66763;47.856;17.462;2023-04-28T07:30:39;16.50;44.10
33943;DHT22;66763;47.856;17.462;2023-04-28T07:33:05;16.50;44.00
33943;DHT22;66763;47.856;17.462;2023-04-28T07:35:30;16.50;44.10
33943;DHT22;66763;47.856;17.462;2023-04-28T07:37:56;16.50;44.10
33943;DHT22;66763;47.856;17.462;2023-04-28T07:40:22;16.50;44.10
33943;DHT22;66763;47.856;17.462;2023-04-28T07:42:47;16.50;44.00
33943;DHT22;66763;47.856;17.462;2023-04-28T07:45:13;16.50;44.00
33943;DHT22;66763;47.856;17.462;2023-04-28T07:47:40;16.50;44.10
33943;DHT22;66763;47.856;17.462;2023-04-28T07:50:05;16.50;44.00
33943;DHT22;66763;47.856;17.462;2023-04-28T07:52:32;16.50;44.10
33943;DHT22;66763;47.856;17.462;2023-04-28T07:54:57;16.50;44.10
33943;DHT22;66763;47.856;17.462;2023-04-28T07:57:23;16.50;44.10
33943;DHT22;66763;47.856;17.462;2023-04-28T07:59:49;16.50;44.10
33943;DHT22;66763;47.856;17.462;2023-04-28T08:02:14;16.50;44.00
33943;DHT22;66763;47.856;17.462;2023-04-28T08:04:40;16.50;44.00
33943;DHT22;66763;47.856;17.462;2023-04-28T08:07:05;16.50;44.10
33943;DHT22;66763;47.856;17.462;2023-04-28T08:09:32;16.50;44.00
33943;DHT22;66763;47.856;17.462;2023-04-28T08:11:59;16.50;44.00
33943;DHT22;66763;47.856;17.462;2023-04-28T08:14:25;16.50;44.10
33943;DHT22;66763;47.856;17.462;2023-04-28T08:16:50;16.50;44.10
33943;DHT22;66763;47.856;17.462;2023-04-28T08:19:16;16.50;44.20
33943;DHT22;66763;47.856;17.462;2023-04-28T08:21:41;16.50;44.10
33943;DHT22;66763;47.856;17.462;2023-04-28T08:24:08;16.50;44.10
33943;DHT22;66763;47.856;17.462;2023-04-28T08:26:35;16.50;44.10
33943;DHT22;66763;47.856;17.462;2023-04-28T08:29:01;16.50;44.10
33943;DHT22;66763;47.856;17.462;2023-04-28T08:31:26;16.50;44.10
33943;DHT22;66763;47.856;17.462;2023-04-28T08:33:52;16.50;44.10
33943;DHT22;66763;47.856;17.462;2023-04-28T08:36:17;16.50;44.00
33943;DHT22;66763;47.856;17.462;2023-04-28T08:38:43;16.50;44.10
33943;DHT22;66763;47.856;17.462;2023-04-28T08:41:09;16.50;44.10
33943;DHT22;66763;47.856;17.462;2023-04-28T08:43:35;16.50;44.20
33943;DHT22;66763;47.856;17.462;2023-04-28T08:46:04;16.50;44.10
33943;DHT22;66763;47.856;17.462;2023-04-28T08:48:29;16.50;44.10
33943;DHT22;66763;47.856;17.462;2023-04-28T08:50:57;16.50;44.00
33943;DHT22;66763;47.856;17.462;2023-04-28T08:53:24;16.50;44.10
33943;DHT22;66763;47.856;17.462;2023-04-28T08:55:54;16.50;44.00
33943;DHT22;66763;47.856;17.462;2023-04-28T08:58:21;16.50;44.10
33943;DHT22;66763;47.856;17.462;2023-04-28T09:00:47;16.50;44.00
33943;DHT22;66763;47.856;17.462;2023-04-28T09:03:12;16.50;44.10
33943;DHT22;66763;47.856;17.462;2023-04-28T09:05:38;16.50;44.00
33943;DHT22;66763;47.856;17.462;2023-04-28T09:08:03;16.50;44.10
33943;DHT22;66763;47.856;17.462;2023-04-28T09:10:29;16.50;44.00
33943;DHT22;66763;47.856;17.462;2023-04-28T09:12:54;16.50;44.00
33943;DHT22;66763;47.856;17.462;2023-04-28T09:15:33;16.50;44.00
33943;DHT22;66763;47.856;17.462;2023-04-28T09:17:59;16.50;44.00
33943;DHT22;66763;47.856;17.462;2023-04-28T09:20:25;16.50;43.90
33943;DHT22;66763;47.856;17.462;2023-04-28T09:22:51;16.50;43.90
33943;DHT22;66763;47.856;17.462;2023-04-28T09:25:17;16.50;43.90
33943;DHT22;66763;47.856;17.462;2023-04-28T09:27:43;16.50;43.90
33943;DHT22;66763;47.856;17.462;2023-04-28T09:30:09;16.50;43.90
33943;DHT22;66763;47.856;17.462;2023-04-28T09:32:34;16.50;44.00
33943;DHT22;66763;47.856;17.462;2023-04-28T09:35:00;16.50;44.00
33943;DHT22;66763;47.856;17.462;2023-04-28T09:37:27;16.50;43.90
33943;DHT22;66763;47.856;17.462;2023-04-28T09:39:56;16.50;43.90
33943;DHT22;66763;47.856;17.462;2023-04-28T09:42:38;16.50;43.90
33943;DHT22;66763;47.856;17.462;2023-04-28T09:45:04;16.50;43.90
33943;DHT22;66763;47.856;17.462;2023-04-28T09:47:31;16.50;43.90
33943;DHT22;66763;47.856;17.462;2023-04-28T09:50:03;16.50;44.00
33943;DHT22;66763;47.856;17.462;2023-04-28T09:52:29;16.50;44.00
33943;DHT22;66763;47.856;17.462;2023-04-28T09:54:55;16.50;44.00
33943;DHT22;66763;47.856;17.462;2023-04-28T09:57:21;16.50;44.00
33943;DHT22;66763;47.856;17.462;2023-04-28T09:59:50;16.50;44.00
33943;DHT22;66763;47.856;17.462;2023-04-28T10:02:17;16.50;44.10
33943;DHT22;66763;47.856;17.462;2023-04-28T10:04:43;16.50;44.00
33943;DHT22;66763;47.856;17.462;2023-04-28T10:07:10;16.50;44.20
33943;DHT22;66763;47.856;17.462;2023-04-28T10:09:36;16.50;44.20
33943;DHT22;66763;47.856;17.462;2023-04-28T10:12:02;16.50;44.30
33943;DHT22;66763;47.856;17.462;2023-04-28T10:14:29;16.50;44.20
33943;DHT22;66763;47.856;17.462;2023-04-28T10:16:56;16.50;44.20
33943;DHT22;66763;47.856;17.462;2023-04-28T10:19:23;16.50;44.10
33943;DHT22;66763;47.856;17.462;2023-04-28T10:21:53;16.50;44.20
33943;DHT22;66763;47.856;17.462;2023-04-28T10:24:24;16.50;44.10
33943;DHT22;66763;47.856;17.462;2023-04-28T10:26:56;16.50;44.10
33943;DHT22;66763;47.856;17.462;2023-04-28T10:29:23;16.50;44.10
33943;DHT22;66763;47.856;17.462;2023-04-28T10:34:33;16.50;44.10
33943;DHT22;66763;47.856;17.462;2023-04-28T10:36:59;16.50;44.10
33943;DHT22;66763;47.856;17.462;2023-04-28T10:39:26;16.50;44.10
33943;DHT22;66763;47.856;17.462;2023-04-28T10:41:51;16.50;44.10
33943;DHT22;66763;47.856;17.462;2023-04-28T10:47:01;16.50;44.10
33943;DHT22;66763;47.856;17.462;2023-04-28T10:57:43;16.50;44.10
33943;DHT22;66763;47.856;17.462;2023-04-28T11:00:27;16.50;44.10
33943;DHT22;66763;47.856;17.462;2023-04-28T11:02:53;16.50;44.20
33943;DHT22;66763;47.856;17.462;2023-04-28T11:05:19;16.60;44.20
33943;DHT22;66763;47.856;17.462;2023-04-28T11:11:10;16.60;44.20
33943;DHT22;66763;47.856;17.462;2023-04-28T11:16:04;16.50;44.20
33943;DHT22;66763;47.856;17.462;2023-04-28T11:18:49;16.50;44.20
33943;DHT22;66763;47.856;17.462;2023-04-28T11:21:16;16.50;44.20
33943;DHT22;66763;47.856;17.462;2023-04-28T11:23:43;16.50;44.20
33943;DHT22;66763;47.856;17.462;2023-04-28T11:26:09;16.50;44.20
33943;DHT22;66763;47.856;17.462;2023-04-28T11:28:34;16.50;44.10
33943;DHT22;66763;47.856;17.462;2023-04-28T11:33:37;16.60;44.20
33943;DHT22;66763;47.856;17.462;2023-04-28T11:36:03;16.50;44.10
33943;DHT22;66763;47.856;17.462;2023-04-28T11:38:28;16.50;44.10
33943;DHT22;66763;47.856;17.462;2023-04-28T11:40:57;16.50;44.10
33943;DHT22;66763;47.856;17.462;2023-04-28T11:43:29;16.50;44.20
33943;DHT22;66763;47.856;17.462;2023-04-28T11:45:54;16.60;44.20
33943;DHT22;66763;47.856;17.462;2023-04-28T11:48:21;16.50;44.10
33943;DHT22;66763;47.856;17.462;2023-04-28T11:50:47;16.50;44.20
33943;DHT22;66763;47.856;17.462;2023-04-28T11:53:12;16.50;44.10
33943;DHT22;66763;47.856;17.462;2023-04-28T11:55:38;16.50;44.20
33943;DHT22;66763;47.856;17.462;2023-04-28T11:58:21;16.50;44.30
33943;DHT22;66763;47.856;17.462;2023-04-28T12:03:43;16.50;44.20
33943;DHT22;66763;47.856;17.462;2023-04-28T12:06:09;16.50;44.20
33943;DHT22;66763;47.856;17.462;2023-04-28T12:08:34;16.50;44.30
33943;DHT22;66763;47.856;17.462;2023-04-28T12:11:09;16.50;44.30
33943;DHT22;66763;47.856;17.462;2023-04-28T12:13:36;16.60;44.40
33943;DHT22;66763;47.856;17.462;2023-04-28T12:16:03;16.60;44.30
33943;DHT22;66763;47.856;17.462;2023-04-28T12:18:35;16.50;44.40
33943;DHT22;66763;47.856;17.462;2023-04-28T12:21:01;16.50;44.30
33943;DHT22;66763;47.856;17.462;2023-04-28T12:23:36;16.50;44.30
33943;DHT22;66763;47.856;17.462;2023-04-28T12:26:01;16.50;44.30
33943;DHT22;66763;47.856;17.462;2023-04-28T12:28:36;16.50;44.20
33943;DHT22;66763;47.856;17.462;2023-04-28T12:31:03;16.50;44.30
33943;DHT22;66763;47.856;17.462;2023-04-28T12:33:28;16.50;44.40
33943;DHT22;66763;47.856;17.462;2023-04-28T12:35:54;16.50;44.30
33943;DHT22;66763;47.856;17.462;2023-04-28T12:38:20;16.50;44.30
33943;DHT22;66763;47.856;17.462;2023-04-28T12:40:46;16.50;44.30
33943;DHT22;66763;47.856;17.462;2023-04-28T12:43:11;16.50;44.30
33943;DHT22;66763;47.856;17.462;2023-04-28T12:45:37;16.50;44.30
33943;DHT22;66763;47.856;17.462;2023-04-28T12:48:03;16.50;44.30
33943;DHT22;66763;47.856;17.462;2023-04-28T12:50:29;16.50;44.30
33943;DHT22;66763;47.856;17.462;2023-04-28T12:52:57;16.50;44.30
33943;DHT22;66763;47.856;17.462;2023-04-28T12:55:23;16.50;44.30
33943;DHT22;66763;47.856;17.462;2023-04-28T12:57:48;16.50;44.30
33943;DHT22;66763;47.856;17.462;2023-04-28T13:00:14;16.50;44.30
33943;DHT22;66763;47.856;17.462;2023-04-28T13:02:45;16.50;44.30
33943;DHT22;66763;47.856;17.462;2023-04-28T13:05:11;16.50;44.30
33943;DHT22;66763;47.856;17.462;2023-04-28T13:07:36;16.50;44.30
33943;DHT22;66763;47.856;17.462;2023-04-28T13:10:02;16.50;44.40
33943;DHT22;66763;47.856;17.462;2023-04-28T13:12:27;16.50;44.30
33943;DHT22;66763;47.856;17.462;2023-04-28T13:14:53;16.50;44.20
33943;DHT22;66763;47.856;17.462;2023-04-28T13:17:18;16.60;44.40
33943;DHT22;66763;47.856;17.462;2023-04-28T13:19:44;16.50;44.30
33943;DHT22;66763;47.856;17.462;2023-04-28T13:22:09;16.50;44.40
33943;DHT22;66763;47.856;17.462;2023-04-28T13:24:35;16.50;44.30
33943;DHT22;66763;47.856;17.462;2023-04-28T13:27:01;16.50;44.30
33943;DHT22;66763;47.856;17.462;2023-04-28T13:29:28;16.50;44.30
33943;DHT22;66763;47.856;17.462;2023-04-28T13:31:54;16.60;44.40
33943;DHT22;66763;47.856;17.462;2023-04-28T13:34:19;16.50;44.30
33943;DHT22;66763;47.856;17.462;2023-04-28T13:36:45;16.50;44.30
33943;DHT22;66763;47.856;17.462;2023-04-28T13:39:12;16.60;44.40
33943;DHT22;66763;47.856;17.462;2023-04-28T13:41:38;16.50;44.40
33943;DHT22;66763;47.856;17.462;2023-04-28T13:44:04;16.50;44.30
33943;DHT22;66763;47.856;17.462;2023-04-28T13:46:29;16.50;44.40
33943;DHT22;66763;47.856;17.462;2023-04-28T13:48:55;16.50;44.30
33943;DHT22;66763;47.856;17.462;2023-04-28T13:51:21;16.50;44.40
33943;DHT22;66763;47.856;17.462;2023-04-28T13:53:47;16.50;44.40
33943;DHT22;66763;47.856;17.462;2023-04-28T13:56:13;16.50;44.30
33943;DHT22;66763;47.856;17.462;2023-04-28T13:58:38;16.50;44.30
33943;DHT22;66763;47.856;17.462;2023-04-28T14:01:04;16.50;44.30
33943;DHT22;66763;47.856;17.462;2023-04-28T14:03:29;16.50;44.40
33943;DHT22;66763;47.856;17.462;2023-04-28T14:05:56;16.50;44.40
33943;DHT22;66763;47.856;17.462;2023-04-28T14:08:22;16.50;44.30
33943;DHT22;66763;47.856;17.462;2023-04-28T14:10:48;16.50;44.40
33943;DHT22;66763;47.856;17.462;2023-04-28T14:13:14;16.50;44.40
33943;DHT22;66763;47.856;17.462;2023-04-28T14:15:39;16.50;44.40
33943;DHT22;66763;47.856;17.462;2023-04-28T14:18:06;16.50;44.30
33943;DHT22;66763;47.856;17.462;2023-04-28T14:20:31;16.50;44.30
33943;DHT22;66763;47.856;17.462;2023-04-28T14:22:57;16.50;44.30
33943;DHT22;66763;47.856;17.462;2023-04-28T14:25:23;16.50;44.30
33943;DHT22;66763;47.856;17.462;2023-04-28T14:27:49;16.50;44.30
33943;DHT22;66763;47.856;17.462;2023-04-28T14:30:15;16.50;44.30
33943;DHT22;66763;47.856;17.462;2023-04-28T14:32:40;16.50;44.30
33943;DHT22;66763;47.856;17.462;2023-04-28T14:35:06;16.50;44.30
33943;DHT22;66763;47.856;17.462;2023-04-28T14:37:32;16.50;44.30
33943;DHT22;66763;47.856;17.462;2023-04-28T14:39:58;16.50;44.30
33943;DHT22;66763;47.856;17.462;2023-04-28T14:42:27;16.50;44.20
33943;DHT22;66763;47.856;17.462;2023-04-28T14:44:54;16.60;44.30
33943;DHT22;66763;47.856;17.462;2023-04-28T14:47:19;16.50;44.20
33943;DHT22;66763;47.856;17.462;2023-04-28T14:49:46;16.50;44.20
33943;DHT22;66763;47.856;17.462;2023-04-28T14:52:12;16.50;44.10
33943;DHT22;66763;47.856;17.462;2023-04-28T14:54:37;16.60;44.30
33943;DHT22;66763;47.856;17.462;2023-04-28T14:57:03;16.60;44.20
33943;DHT22;66763;47.856;17.462;2023-04-28T14:59:29;16.60;44.20
33943;DHT22;66763;47.856;17.462;2023-04-28T15:01:55;16.60;44.20
33943;DHT22;66763;47.856;17.462;2023-04-28T15:04:20;16.60;44.20
33943;DHT22;66763;47.856;17.462;2023-04-28T15:06:46;16.60;44.20
33943;DHT22;66763;47.856;17.462;2023-04-28T15:09:12;16.50;44.20
33943;DHT22;66763;47.856;17.462;2023-04-28T15:11:37;16.50;44.20
33943;DHT22;66763;47.856;17.462;2023-04-28T15:14:03;16.50;44.30
33943;DHT22;66763;47.856;17.462;2023-04-28T15:16:28;16.60;44.30
33943;DHT22;66763;47.856;17.462;2023-04-28T15:18:54;16.60;44.80
33943;DHT22;66763;47.856;17.462;2023-04-28T15:21:19;16.60;44.30
33943;DHT22;66763;47.856;17.462;2023-04-28T15:23:45;16.60;44.20
33943;DHT22;66763;47.856;17.462;2023-04-28T15:26:10;16.60;44.80
33943;DHT22;66763;47.856;17.462;2023-04-28T15:28:36;16.50;44.40
33943;DHT22;66763;47.856;17.462;2023-04-28T15:31:02;16.60;44.40
33943;DHT22;66763;47.856;17.462;2023-04-28T15:33:29;16.50;44.30